sensor_id;sensor_type;location;lat;lon;timestamp;P1;durP1;ratioP1;P2;durP2;ratioP2
12110;SDS011;6119;52.372;8.990;2022-11-15T00:00:05;7.77;;;5.50;;
12110;SDS011;6119;52.372;8.990;2022-11-15T00:02:52;7.27;;;5.27;;
12110;SDS011;6119;52.372;8.990;2022-11-15T00:05:39;7.47;;;5.33;;
12110;SDS011;6119;52.372;8.990;2022-11-15T00:08:28;7.23;;;5.60;;
12110;SDS011;6119;52.372;8.990;2022-11-15T00:11:16;6.17;;;5.07;;
12110;SDS011;6119;52.372;8.990;2022-11-15T00:14:03;7.23;;;5.40;;
12110;SDS011;6119;52.372;8.990;2022-11-15T00:16:50;5.83;;;5.20;;
12110;SDS011;6119;52.372;8.990;2022-11-15T00:19:36;8.00;;;5.40;;
12110;SDS011;6119;52.372;8.990;2022-11-15T00:22:23;7.87;;;6.00;;
12110;SDS011;6119;52.372;8.990;2022-11-15T00:25:09;7.67;;;5.40;;
12110;SDS011;6119;52.372;8.990;2022-11-15T00:27:57;7.20;;;5.57;;
12110;SDS011;6119;52.372;8.990;2022-11-15T00:30:44;6.53;;;5.17;;
12110;SDS011;6119;52.372;8.990;2022-11-15T00:33:31;7.23;;;5.20;;
12110;SDS011;6119;52.372;8.990;2022-11-15T00:36:18;7.50;;;5.43;;
12110;SDS011;6119;52.372;8.990;2022-11-15T00:39:05;8.90;;;5.30;;
12110;SDS011;6119;52.372;8.990;2022-11-15T00:41:52;6.27;;;4.80;;
12110;SDS011;6119;52.372;8.990;2022-11-15T00:44:40;7.23;;;5.37;;
12110;SDS011;6119;52.372;8.990;2022-11-15T00:47:27;9.30;;;6.00;;
12110;SDS011;6119;52.372;8.990;2022-11-15T00:50:13;8.23;;;5.60;;
12110;SDS011;6119;52.372;8.990;2022-11-15T00:53:00;6.83;;;5.00;;
12110;SDS011;6119;52.372;8.990;2022-11-15T00:55:47;6.47;;;5.07;;
12110;SDS011;6119;52.372;8.990;2022-11-15T00:58:33;7.93;;;5.40;;
12110;SDS011;6119;52.372;8.990;2022-11-15T01:01:21;5.87;;;4.73;;
12110;SDS011;6119;52.372;8.990;2022-11-15T01:04:08;7.23;;;4.90;;
12110;SDS011;6119;52.372;8.990;2022-11-15T01:06:54;8.43;;;5.00;;
12110;SDS011;6119;52.372;8.990;2022-11-15T01:09:41;6.00;;;5.00;;
12110;SDS011;6119;52.372;8.990;2022-11-15T01:12:27;7.03;;;4.93;;
12110;SDS011;6119;52.372;8.990;2022-11-15T01:15:14;8.10;;;5.60;;
12110;SDS011;6119;52.372;8.990;2022-11-15T01:18:02;7.27;;;5.20;;
12110;SDS011;6119;52.372;8.990;2022-11-15T01:20:49;8.60;;;5.07;;
12110;SDS011;6119;52.372;8.990;2022-11-15T01:23:35;8.60;;;5.80;;
12110;SDS011;6119;52.372;8.990;2022-11-15T01:26:23;7.87;;;5.70;;
12110;SDS011;6119;52.372;8.990;2022-11-15T01:29:11;7.73;;;5.20;;
12110;SDS011;6119;52.372;8.990;2022-11-15T01:31:57;6.50;;;5.30;;
12110;SDS011;6119;52.372;8.990;2022-11-15T01:34:46;8.33;;;5.30;;
12110;SDS011;6119;52.372;8.990;2022-11-15T01:37:32;7.63;;;4.80;;
12110;SDS011;6119;52.372;8.990;2022-11-15T01:40:20;7.07;;;5.17;;
12110;SDS011;6119;52.372;8.990;2022-11-15T01:46:17;6.40;;;4.77;;
12110;SDS011;6119;52.372;8.990;2022-11-15T01:49:14;7.20;;;4.17;;
12110;SDS011;6119;52.372;8.990;2022-11-15T01:52:04;5.70;;;4.90;;
12110;SDS011;6119;52.372;8.990;2022-11-15T01:54:55;6.40;;;4.27;;
12110;SDS011;6119;52.372;8.990;2022-11-15T01:57:47;5.77;;;4.53;;
12110;SDS011;6119;52.372;8.990;2022-11-15T02:00:36;6.43;;;4.50;;
12110;SDS011;6119;52.372;8.990;2022-11-15T02:03:23;6.27;;;4.67;;
12110;SDS011;6119;52.372;8.990;2022-11-15T02:06:16;6.80;;;4.77;;
12110;SDS011;6119;52.372;8.990;2022-11-15T02:09:05;7.10;;;4.97;;
12110;SDS011;6119;52.372;8.990;2022-11-15T02:11:52;7.03;;;4.47;;
12110;SDS011;6119;52.372;8.990;2022-11-15T02:14:42;7.17;;;5.30;;
12110;SDS011;6119;52.372;8.990;2022-11-15T02:17:34;7.27;;;4.60;;
12110;SDS011;6119;52.372;8.990;2022-11-15T02:21:03;7.50;;;4.80;;
12110;SDS011;6119;52.372;8.990;2022-11-15T02:24:11;7.83;;;4.70;;
12110;SDS011;6119;52.372;8.990;2022-11-15T02:27:30;7.07;;;4.90;;
12110;SDS011;6119;52.372;8.990;2022-11-15T02:30:44;12.33;;;5.30;;
12110;SDS011;6119;52.372;8.990;2022-11-15T02:33:35;6.20;;;4.90;;
12110;SDS011;6119;52.372;8.990;2022-11-15T02:36:31;7.37;;;5.13;;
12110;SDS011;6119;52.372;8.990;2022-11-15T02:39:23;8.33;;;4.93;;
12110;SDS011;6119;52.372;8.990;2022-11-15T02:42:14;7.60;;;5.10;;
12110;SDS011;6119;52.372;8.990;2022-11-15T02:45:22;8.33;;;5.70;;
12110;SDS011;6119;52.372;8.990;2022-11-15T02:48:13;9.97;;;6.17;;
12110;SDS011;6119;52.372;8.990;2022-11-15T02:51:01;9.93;;;5.70;;
12110;SDS011;6119;52.372;8.990;2022-11-15T02:53:49;8.77;;;5.80;;
12110;SDS011;6119;52.372;8.990;2022-11-15T02:56:35;13.20;;;6.47;;
12110;SDS011;6119;52.372;8.990;2022-11-15T03:02:55;8.93;;;5.60;;
12110;SDS011;6119;52.372;8.990;2022-11-15T03:05:56;10.53;;;5.77;;
12110;SDS011;6119;52.372;8.990;2022-11-15T03:08:54;9.00;;;5.60;;
12110;SDS011;6119;52.372;8.990;2022-11-15T03:11:49;8.40;;;5.67;;
12110;SDS011;6119;52.372;8.990;2022-11-15T03:14:42;17.20;;;6.73;;
12110;SDS011;6119;52.372;8.990;2022-11-15T03:17:37;9.07;;;7.33;;
12110;SDS011;6119;52.372;8.990;2022-11-15T03:20:30;10.27;;;7.20;;
12110;SDS011;6119;52.372;8.990;2022-11-15T03:23:19;10.47;;;6.70;;
12110;SDS011;6119;52.372;8.990;2022-11-15T03:26:08;11.57;;;7.97;;
12110;SDS011;6119;52.372;8.990;2022-11-15T03:28:58;14.33;;;7.90;;
12110;SDS011;6119;52.372;8.990;2022-11-15T03:31:51;9.87;;;7.40;;
12110;SDS011;6119;52.372;8.990;2022-11-15T03:34:41;11.33;;;7.43;;
12110;SDS011;6119;52.372;8.990;2022-11-15T03:37:33;11.87;;;7.77;;
12110;SDS011;6119;52.372;8.990;2022-11-15T03:40:25;12.60;;;7.57;;
12110;SDS011;6119;52.372;8.990;2022-11-15T03:43:22;9.23;;;7.53;;
12110;SDS011;6119;52.372;8.990;2022-11-15T03:46:17;12.27;;;7.63;;
12110;SDS011;6119;52.372;8.990;2022-11-15T03:49:10;10.20;;;7.70;;
12110;SDS011;6119;52.372;8.990;2022-11-15T03:52:00;10.37;;;7.20;;
12110;SDS011;6119;52.372;8.990;2022-11-15T03:54:50;13.30;;;7.47;;
12110;SDS011;6119;52.372;8.990;2022-11-15T03:57:39;8.73;;;6.90;;
12110;SDS011;6119;52.372;8.990;2022-11-15T04:00:26;15.67;;;7.77;;
12110;SDS011;6119;52.372;8.990;2022-11-15T04:03:13;9.10;;;7.30;;
12110;SDS011;6119;52.372;8.990;2022-11-15T04:06:00;13.20;;;7.37;;
12110;SDS011;6119;52.372;8.990;2022-11-15T04:08:47;12.93;;;8.07;;
12110;SDS011;6119;52.372;8.990;2022-11-15T04:11:33;12.13;;;7.83;;
12110;SDS011;6119;52.372;8.990;2022-11-15T04:14:21;9.67;;;7.80;;
12110;SDS011;6119;52.372;8.990;2022-11-15T04:17:08;14.13;;;7.90;;
12110;SDS011;6119;52.372;8.990;2022-11-15T04:19:54;11.57;;;8.03;;
12110;SDS011;6119;52.372;8.990;2022-11-15T04:22:59;13.53;;;7.93;;
12110;SDS011;6119;52.372;8.990;2022-11-15T04:26:05;12.63;;;8.27;;
12110;SDS011;6119;52.372;8.990;2022-11-15T04:28:54;11.80;;;8.07;;
12110;SDS011;6119;52.372;8.990;2022-11-15T04:32:00;12.97;;;8.37;;
12110;SDS011;6119;52.372;8.990;2022-11-15T04:34:47;11.47;;;8.63;;
12110;SDS011;6119;52.372;8.990;2022-11-15T04:37:33;14.20;;;7.70;;
12110;SDS011;6119;52.372;8.990;2022-11-15T04:40:19;10.47;;;7.63;;
12110;SDS011;6119;52.372;8.990;2022-11-15T04:43:06;10.33;;;7.60;;
12110;SDS011;6119;52.372;8.990;2022-11-15T04:45:52;10.57;;;7.37;;
12110;SDS011;6119;52.372;8.990;2022-11-15T04:48:40;10.93;;;7.87;;
12110;SDS011;6119;52.372;8.990;2022-11-15T04:51:27;11.20;;;7.43;;
12110;SDS011;6119;52.372;8.990;2022-11-15T04:54:13;10.03;;;7.13;;
12110;SDS011;6119;52.372;8.990;2022-11-15T04:57:00;9.00;;;7.40;;
12110;SDS011;6119;52.372;8.990;2022-11-15T04:59:46;11.70;;;7.20;;
12110;SDS011;6119;52.372;8.990;2022-11-15T05:02:33;13.67;;;8.00;;
12110;SDS011;6119;52.372;8.990;2022-11-15T05:05:39;10.60;;;7.33;;
12110;SDS011;6119;52.372;8.990;2022-11-15T05:08:26;12.57;;;7.23;;
12110;SDS011;6119;52.372;8.990;2022-11-15T05:11:13;9.90;;;6.97;;
12110;SDS011;6119;52.372;8.990;2022-11-15T05:13:59;10.83;;;7.17;;
12110;SDS011;6119;52.372;8.990;2022-11-15T05:16:46;12.53;;;7.60;;
12110;SDS011;6119;52.372;8.990;2022-11-15T05:19:32;10.30;;;7.03;;
12110;SDS011;6119;52.372;8.990;2022-11-15T05:22:20;13.00;;;8.00;;
12110;SDS011;6119;52.372;8.990;2022-11-15T05:25:07;10.50;;;6.93;;
12110;SDS011;6119;52.372;8.990;2022-11-15T05:27:54;10.30;;;7.03;;
12110;SDS011;6119;52.372;8.990;2022-11-15T05:30:40;9.17;;;6.97;;
12110;SDS011;6119;52.372;8.990;2022-11-15T05:33:26;11.03;;;7.50;;
12110;SDS011;6119;52.372;8.990;2022-11-15T05:36:15;12.97;;;6.60;;
12110;SDS011;6119;52.372;8.990;2022-11-15T05:39:07;13.13;;;7.37;;
12110;SDS011;6119;52.372;8.990;2022-11-15T05:41:54;13.20;;;7.07;;
12110;SDS011;6119;52.372;8.990;2022-11-15T05:44:46;8.13;;;6.30;;
12110;SDS011;6119;52.372;8.990;2022-11-15T05:47:34;7.80;;;6.43;;
12110;SDS011;6119;52.372;8.990;2022-11-15T05:50:23;10.13;;;6.77;;
12110;SDS011;6119;52.372;8.990;2022-11-15T05:53:10;8.47;;;6.13;;
12110;SDS011;6119;52.372;8.990;2022-11-15T05:56:01;10.60;;;6.70;;
12110;SDS011;6119;52.372;8.990;2022-11-15T05:58:48;9.73;;;6.73;;
12110;SDS011;6119;52.372;8.990;2022-11-15T06:01:40;10.03;;;6.57;;
12110;SDS011;6119;52.372;8.990;2022-11-15T06:04:28;10.47;;;5.70;;
12110;SDS011;6119;52.372;8.990;2022-11-15T06:07:14;6.60;;;5.50;;
12110;SDS011;6119;52.372;8.990;2022-11-15T06:10:01;12.47;;;6.50;;
12110;SDS011;6119;52.372;8.990;2022-11-15T06:12:56;14.13;;;5.97;;
12110;SDS011;6119;52.372;8.990;2022-11-15T06:15:44;8.30;;;5.80;;
12110;SDS011;6119;52.372;8.990;2022-11-15T06:18:31;10.03;;;6.57;;
12110;SDS011;6119;52.372;8.990;2022-11-15T06:21:19;10.10;;;6.00;;
12110;SDS011;6119;52.372;8.990;2022-11-15T06:24:06;8.63;;;6.87;;
12110;SDS011;6119;52.372;8.990;2022-11-15T06:26:53;7.90;;;5.83;;
12110;SDS011;6119;52.372;8.990;2022-11-15T06:29:40;8.27;;;6.23;;
12110;SDS011;6119;52.372;8.990;2022-11-15T06:32:28;10.33;;;6.90;;
12110;SDS011;6119;52.372;8.990;2022-11-15T06:35:15;9.17;;;6.67;;
12110;SDS011;6119;52.372;8.990;2022-11-15T06:38:03;7.40;;;5.93;;
12110;SDS011;6119;52.372;8.990;2022-11-15T06:40:50;9.23;;;6.67;;
12110;SDS011;6119;52.372;8.990;2022-11-15T06:43:36;9.20;;;6.37;;
12110;SDS011;6119;52.372;8.990;2022-11-15T06:46:25;9.50;;;6.07;;
12110;SDS011;6119;52.372;8.990;2022-11-15T06:49:12;9.10;;;6.40;;
12110;SDS011;6119;52.372;8.990;2022-11-15T06:51:58;8.00;;;6.10;;
12110;SDS011;6119;52.372;8.990;2022-11-15T06:54:45;7.23;;;5.57;;
12110;SDS011;6119;52.372;8.990;2022-11-15T06:57:31;7.63;;;5.87;;
12110;SDS011;6119;52.372;8.990;2022-11-15T07:00:18;9.37;;;6.07;;
12110;SDS011;6119;52.372;8.990;2022-11-15T07:03:08;9.20;;;5.77;;
12110;SDS011;6119;52.372;8.990;2022-11-15T07:05:56;8.30;;;5.73;;
12110;SDS011;6119;52.372;8.990;2022-11-15T07:08:51;9.13;;;6.33;;
12110;SDS011;6119;52.372;8.990;2022-11-15T07:11:38;13.87;;;5.70;;
12110;SDS011;6119;52.372;8.990;2022-11-15T07:14:24;5.73;;;5.00;;
12110;SDS011;6119;52.372;8.990;2022-11-15T07:17:11;6.50;;;5.67;;
12110;SDS011;6119;52.372;8.990;2022-11-15T07:19:59;10.30;;;5.40;;
12110;SDS011;6119;52.372;8.990;2022-11-15T07:22:46;7.40;;;4.97;;
12110;SDS011;6119;52.372;8.990;2022-11-15T07:25:32;7.00;;;5.37;;
12110;SDS011;6119;52.372;8.990;2022-11-15T07:28:19;9.03;;;5.60;;
12110;SDS011;6119;52.372;8.990;2022-11-15T07:31:07;9.87;;;4.83;;
12110;SDS011;6119;52.372;8.990;2022-11-15T07:33:54;8.13;;;5.23;;
12110;SDS011;6119;52.372;8.990;2022-11-15T07:36:42;8.77;;;5.10;;
12110;SDS011;6119;52.372;8.990;2022-11-15T07:39:29;8.37;;;5.67;;
12110;SDS011;6119;52.372;8.990;2022-11-15T07:42:15;10.83;;;5.57;;
12110;SDS011;6119;52.372;8.990;2022-11-15T07:45:19;7.50;;;5.27;;
12110;SDS011;6119;52.372;8.990;2022-11-15T07:48:06;7.70;;;5.60;;
12110;SDS011;6119;52.372;8.990;2022-11-15T07:50:52;6.17;;;5.13;;
12110;SDS011;6119;52.372;8.990;2022-11-15T07:53:40;8.97;;;5.97;;
12110;SDS011;6119;52.372;8.990;2022-11-15T07:56:27;8.23;;;5.33;;
12110;SDS011;6119;52.372;8.990;2022-11-15T07:59:13;7.20;;;5.30;;
12110;SDS011;6119;52.372;8.990;2022-11-15T08:02:00;7.40;;;4.97;;
12110;SDS011;6119;52.372;8.990;2022-11-15T08:04:47;11.17;;;5.10;;
12110;SDS011;6119;52.372;8.990;2022-11-15T08:07:33;8.90;;;5.13;;
12110;SDS011;6119;52.372;8.990;2022-11-15T08:10:21;6.53;;;5.30;;
12110;SDS011;6119;52.372;8.990;2022-11-15T08:13:09;6.40;;;4.90;;
12110;SDS011;6119;52.372;8.990;2022-11-15T08:15:57;5.60;;;4.23;;
12110;SDS011;6119;52.372;8.990;2022-11-15T08:18:45;6.20;;;4.67;;
12110;SDS011;6119;52.372;8.990;2022-11-15T08:21:32;6.73;;;4.57;;
12110;SDS011;6119;52.372;8.990;2022-11-15T08:24:18;5.57;;;4.60;;
12110;SDS011;6119;52.372;8.990;2022-11-15T08:27:06;7.57;;;4.70;;
12110;SDS011;6119;52.372;8.990;2022-11-15T08:29:59;5.83;;;4.23;;
12110;SDS011;6119;52.372;8.990;2022-11-15T08:32:46;9.63;;;4.40;;
12110;SDS011;6119;52.372;8.990;2022-11-15T08:35:33;9.80;;;4.67;;
12110;SDS011;6119;52.372;8.990;2022-11-15T08:38:20;6.90;;;4.70;;
12110;SDS011;6119;52.372;8.990;2022-11-15T08:41:06;4.93;;;3.87;;
12110;SDS011;6119;52.372;8.990;2022-11-15T08:43:57;5.60;;;4.03;;
12110;SDS011;6119;52.372;8.990;2022-11-15T08:46:45;6.13;;;4.50;;
12110;SDS011;6119;52.372;8.990;2022-11-15T08:49:31;5.90;;;3.97;;
12110;SDS011;6119;52.372;8.990;2022-11-15T08:52:18;6.37;;;3.90;;
12110;SDS011;6119;52.372;8.990;2022-11-15T08:55:05;6.67;;;4.07;;
12110;SDS011;6119;52.372;8.990;2022-11-15T08:57:52;4.97;;;4.03;;
12110;SDS011;6119;52.372;8.990;2022-11-15T09:00:40;7.87;;;4.10;;
12110;SDS011;6119;52.372;8.990;2022-11-15T09:03:27;5.57;;;3.83;;
12110;SDS011;6119;52.372;8.990;2022-11-15T09:06:14;4.70;;;3.70;;
12110;SDS011;6119;52.372;8.990;2022-11-15T09:09:01;5.17;;;3.80;;
12110;SDS011;6119;52.372;8.990;2022-11-15T09:11:48;6.57;;;3.57;;
12110;SDS011;6119;52.372;8.990;2022-11-15T09:14:35;5.90;;;3.83;;
12110;SDS011;6119;52.372;8.990;2022-11-15T09:17:23;4.30;;;3.40;;
12110;SDS011;6119;52.372;8.990;2022-11-15T09:20:10;5.00;;;3.73;;
12110;SDS011;6119;52.372;8.990;2022-11-15T09:22:58;5.27;;;3.37;;
12110;SDS011;6119;52.372;8.990;2022-11-15T09:25:46;6.50;;;3.67;;
12110;SDS011;6119;52.372;8.990;2022-11-15T09:28:33;5.23;;;3.27;;
12110;SDS011;6119;52.372;8.990;2022-11-15T09:31:20;3.77;;;3.20;;
12110;SDS011;6119;52.372;8.990;2022-11-15T09:34:08;5.93;;;3.67;;
12110;SDS011;6119;52.372;8.990;2022-11-15T09:36:54;3.77;;;3.00;;
12110;SDS011;6119;52.372;8.990;2022-11-15T09:39:41;4.37;;;3.20;;
12110;SDS011;6119;52.372;8.990;2022-11-15T09:42:35;6.27;;;3.37;;
12110;SDS011;6119;52.372;8.990;2022-11-15T09:45:40;3.43;;;3.10;;
12110;SDS011;6119;52.372;8.990;2022-11-15T09:48:41;6.30;;;2.80;;
12110;SDS011;6119;52.372;8.990;2022-11-15T09:51:36;3.50;;;3.10;;
12110;SDS011;6119;52.372;8.990;2022-11-15T09:54:31;4.00;;;2.37;;
12110;SDS011;6119;52.372;8.990;2022-11-15T09:57:41;3.10;;;2.70;;
12110;SDS011;6119;52.372;8.990;2022-11-15T10:00:37;3.20;;;2.83;;
12110;SDS011;6119;52.372;8.990;2022-11-15T10:03:33;4.13;;;2.63;;
12110;SDS011;6119;52.372;8.990;2022-11-15T10:06:21;3.00;;;2.30;;
12110;SDS011;6119;52.372;8.990;2022-11-15T10:09:14;4.33;;;2.70;;
12110;SDS011;6119;52.372;8.990;2022-11-15T10:12:08;4.60;;;2.63;;
12110;SDS011;6119;52.372;8.990;2022-11-15T10:14:58;2.43;;;2.23;;
12110;SDS011;6119;52.372;8.990;2022-11-15T10:18:07;2.93;;;2.13;;
12110;SDS011;6119;52.372;8.990;2022-11-15T10:20:59;2.53;;;2.10;;
12110;SDS011;6119;52.372;8.990;2022-11-15T10:23:55;3.50;;;2.33;;
12110;SDS011;6119;52.372;8.990;2022-11-15T10:26:47;3.10;;;2.13;;
12110;SDS011;6119;52.372;8.990;2022-11-15T10:29:34;5.13;;;2.17;;
12110;SDS011;6119;52.372;8.990;2022-11-15T10:32:21;3.43;;;2.10;;
12110;SDS011;6119;52.372;8.990;2022-11-15T10:35:18;1.73;;;1.63;;
12110;SDS011;6119;52.372;8.990;2022-11-15T10:38:07;2.37;;;2.07;;
12110;SDS011;6119;52.372;8.990;2022-11-15T10:40:55;2.03;;;1.80;;
12110;SDS011;6119;52.372;8.990;2022-11-15T10:44:03;2.43;;;1.80;;
12110;SDS011;6119;52.372;8.990;2022-11-15T10:47:21;1.73;;;1.63;;
12110;SDS011;6119;52.372;8.990;2022-11-15T10:50:25;3.57;;;2.00;;
12110;SDS011;6119;52.372;8.990;2022-11-15T10:53:16;2.30;;;1.50;;
12110;SDS011;6119;52.372;8.990;2022-11-15T10:56:08;2.40;;;1.70;;
12110;SDS011;6119;52.372;8.990;2022-11-15T10:59:02;1.60;;;1.50;;
12110;SDS011;6119;52.372;8.990;2022-11-15T11:01:48;2.20;;;2.00;;
12110;SDS011;6119;52.372;8.990;2022-11-15T11:04:42;2.73;;;1.90;;
12110;SDS011;6119;52.372;8.990;2022-11-15T11:07:35;2.00;;;1.63;;
12110;SDS011;6119;52.372;8.990;2022-11-15T11:10:22;2.13;;;1.73;;
12110;SDS011;6119;52.372;8.990;2022-11-15T11:13:29;1.93;;;1.43;;
12110;SDS011;6119;52.372;8.990;2022-11-15T11:16:21;1.47;;;1.20;;
12110;SDS011;6119;52.372;8.990;2022-11-15T11:22:39;1.33;;;1.23;;
12110;SDS011;6119;52.372;8.990;2022-11-15T11:25:33;2.10;;;1.30;;
12110;SDS011;6119;52.372;8.990;2022-11-15T11:28:29;1.93;;;1.40;;
12110;SDS011;6119;52.372;8.990;2022-11-15T11:31:28;1.93;;;1.20;;
12110;SDS011;6119;52.372;8.990;2022-11-15T11:34:28;1.40;;;1.10;;
12110;SDS011;6119;52.372;8.990;2022-11-15T11:37:23;1.87;;;1.13;;
12110;SDS011;6119;52.372;8.990;2022-11-15T11:40:20;1.30;;;1.20;;
12110;SDS011;6119;52.372;8.990;2022-11-15T11:43:15;1.40;;;1.30;;
12110;SDS011;6119;52.372;8.990;2022-11-15T11:46:14;1.43;;;1.23;;
12110;SDS011;6119;52.372;8.990;2022-11-15T11:49:12;2.23;;;1.00;;
12110;SDS011;6119;52.372;8.990;2022-11-15T11:52:07;1.33;;;1.23;;
12110;SDS011;6119;52.372;8.990;2022-11-15T11:55:02;4.40;;;1.20;;
12110;SDS011;6119;52.372;8.990;2022-11-15T11:58:02;1.77;;;1.30;;
12110;SDS011;6119;52.372;8.990;2022-11-15T12:00:52;1.30;;;1.20;;
12110;SDS011;6119;52.372;8.990;2022-11-15T12:03:42;1.70;;;1.23;;
12110;SDS011;6119;52.372;8.990;2022-11-15T12:06:33;3.20;;;1.27;;
12110;SDS011;6119;52.372;8.990;2022-11-15T12:09:27;1.40;;;1.30;;
12110;SDS011;6119;52.372;8.990;2022-11-15T12:12:23;2.40;;;1.20;;
12110;SDS011;6119;52.372;8.990;2022-11-15T12:15:16;2.23;;;1.60;;
12110;SDS011;6119;52.372;8.990;2022-11-15T12:18:07;1.30;;;1.20;;
12110;SDS011;6119;52.372;8.990;2022-11-15T12:20:59;1.90;;;1.50;;
12110;SDS011;6119;52.372;8.990;2022-11-15T12:23:52;1.57;;;1.20;;
12110;SDS011;6119;52.372;8.990;2022-11-15T12:26:45;1.40;;;1.30;;
12110;SDS011;6119;52.372;8.990;2022-11-15T12:29:37;2.00;;;1.80;;
12110;SDS011;6119;52.372;8.990;2022-11-15T12:32:27;3.40;;;1.70;;
12110;SDS011;6119;52.372;8.990;2022-11-15T12:35:21;2.03;;;1.63;;
12110;SDS011;6119;52.372;8.990;2022-11-15T12:38:13;1.90;;;1.70;;
12110;SDS011;6119;52.372;8.990;2022-11-15T12:41:43;2.50;;;1.70;;
12110;SDS011;6119;52.372;8.990;2022-11-15T12:44:58;1.60;;;1.50;;
12110;SDS011;6119;52.372;8.990;2022-11-15T12:47:46;3.17;;;1.80;;
12110;SDS011;6119;52.372;8.990;2022-11-15T12:53:39;1.70;;;1.60;;
12110;SDS011;6119;52.372;8.990;2022-11-15T12:56:26;3.30;;;1.60;;
12110;SDS011;6119;52.372;8.990;2022-11-15T12:59:38;4.07;;;1.80;;
12110;SDS011;6119;52.372;8.990;2022-11-15T13:02:36;5.43;;;2.10;;
12110;SDS011;6119;52.372;8.990;2022-11-15T13:08:48;2.67;;;1.80;;
12110;SDS011;6119;52.372;8.990;2022-11-15T13:11:43;6.13;;;1.73;;
12110;SDS011;6119;52.372;8.990;2022-11-15T13:14:40;2.77;;;2.03;;
12110;SDS011;6119;52.372;8.990;2022-11-15T13:17:32;2.93;;;2.00;;
12110;SDS011;6119;52.372;8.990;2022-11-15T13:20:24;2.00;;;1.80;;
12110;SDS011;6119;52.372;8.990;2022-11-15T13:23:14;1.93;;;1.70;;
12110;SDS011;6119;52.372;8.990;2022-11-15T13:26:12;3.40;;;1.90;;
12110;SDS011;6119;52.372;8.990;2022-11-15T13:29:02;2.20;;;1.90;;
12110;SDS011;6119;52.372;8.990;2022-11-15T13:31:51;2.00;;;1.80;;
12110;SDS011;6119;52.372;8.990;2022-11-15T13:34:37;4.20;;;2.00;;
12110;SDS011;6119;52.372;8.990;2022-11-15T13:37:39;3.10;;;2.10;;
12110;SDS011;6119;52.372;8.990;2022-11-15T13:40:28;2.60;;;1.93;;
12110;SDS011;6119;52.372;8.990;2022-11-15T13:43:25;5.57;;;2.27;;
12110;SDS011;6119;52.372;8.990;2022-11-15T13:46:20;2.50;;;1.80;;
12110;SDS011;6119;52.372;8.990;2022-11-15T13:49:09;2.47;;;1.90;;
12110;SDS011;6119;52.372;8.990;2022-11-15T13:51:56;3.87;;;2.13;;
12110;SDS011;6119;52.372;8.990;2022-11-15T13:54:44;2.50;;;1.87;;
12110;SDS011;6119;52.372;8.990;2022-11-15T13:57:35;7.40;;;1.83;;
12110;SDS011;6119;52.372;8.990;2022-11-15T14:00:29;2.40;;;1.80;;
12110;SDS011;6119;52.372;8.990;2022-11-15T14:03:19;3.90;;;2.23;;
12110;SDS011;6119;52.372;8.990;2022-11-15T14:06:12;4.23;;;2.20;;
12110;SDS011;6119;52.372;8.990;2022-11-15T14:09:15;2.50;;;1.83;;
12110;SDS011;6119;52.372;8.990;2022-11-15T14:12:22;2.83;;;1.80;;
12110;SDS011;6119;52.372;8.990;2022-11-15T14:15:18;2.60;;;1.60;;
12110;SDS011;6119;52.372;8.990;2022-11-15T14:18:42;2.93;;;2.10;;
12110;SDS011;6119;52.372;8.990;2022-11-15T14:21:29;2.37;;;1.80;;
12110;SDS011;6119;52.372;8.990;2022-11-15T14:24:17;3.50;;;2.17;;
12110;SDS011;6119;52.372;8.990;2022-11-15T14:27:19;1.83;;;1.60;;
12110;SDS011;6119;52.372;8.990;2022-11-15T14:30:12;2.83;;;1.97;;
12110;SDS011;6119;52.372;8.990;2022-11-15T14:33:00;5.10;;;2.20;;
12110;SDS011;6119;52.372;8.990;2022-11-15T14:35:50;4.27;;;1.70;;
12110;SDS011;6119;52.372;8.990;2022-11-15T14:38:38;1.77;;;1.67;;
12110;SDS011;6119;52.372;8.990;2022-11-15T14:41:27;4.20;;;2.17;;
12110;SDS011;6119;52.372;8.990;2022-11-15T14:44:17;4.70;;;2.07;;
12110;SDS011;6119;52.372;8.990;2022-11-15T14:47:05;4.57;;;2.43;;
12110;SDS011;6119;52.372;8.990;2022-11-15T14:49:52;2.53;;;1.77;;
12110;SDS011;6119;52.372;8.990;2022-11-15T14:52:38;2.07;;;1.87;;
12110;SDS011;6119;52.372;8.990;2022-11-15T14:55:28;4.83;;;2.13;;
12110;SDS011;6119;52.372;8.990;2022-11-15T14:58:17;2.70;;;1.97;;
12110;SDS011;6119;52.372;8.990;2022-11-15T15:01:08;2.43;;;1.70;;
12110;SDS011;6119;52.372;8.990;2022-11-15T15:03:58;3.10;;;1.93;;
12110;SDS011;6119;52.372;8.990;2022-11-15T15:06:45;3.00;;;1.87;;
12110;SDS011;6119;52.372;8.990;2022-11-15T15:09:32;4.27;;;1.63;;
12110;SDS011;6119;52.372;8.990;2022-11-15T15:12:21;2.33;;;1.77;;
12110;SDS011;6119;52.372;8.990;2022-11-15T15:15:11;4.77;;;1.67;;
12110;SDS011;6119;52.372;8.990;2022-11-15T15:17:59;3.07;;;1.53;;
12110;SDS011;6119;52.372;8.990;2022-11-15T15:20:47;4.63;;;1.80;;
12110;SDS011;6119;52.372;8.990;2022-11-15T15:23:42;2.13;;;1.63;;
12110;SDS011;6119;52.372;8.990;2022-11-15T15:26:28;2.07;;;1.87;;
12110;SDS011;6119;52.372;8.990;2022-11-15T15:29:19;2.43;;;1.70;;
12110;SDS011;6119;52.372;8.990;2022-11-15T15:32:08;4.00;;;1.87;;
12110;SDS011;6119;52.372;8.990;2022-11-15T15:34:54;2.33;;;1.60;;
12110;SDS011;6119;52.372;8.990;2022-11-15T15:37:41;2.50;;;1.87;;
12110;SDS011;6119;52.372;8.990;2022-11-15T15:40:30;3.63;;;2.20;;
12110;SDS011;6119;52.372;8.990;2022-11-15T15:43:18;3.33;;;2.50;;
12110;SDS011;6119;52.372;8.990;2022-11-15T15:46:07;4.33;;;1.90;;
12110;SDS011;6119;52.372;8.990;2022-11-15T15:48:55;2.97;;;1.93;;
12110;SDS011;6119;52.372;8.990;2022-11-15T15:51:41;11.23;;;3.37;;
12110;SDS011;6119;52.372;8.990;2022-11-15T15:54:28;7.77;;;3.67;;
12110;SDS011;6119;52.372;8.990;2022-11-15T15:57:15;3.37;;;3.07;;
12110;SDS011;6119;52.372;8.990;2022-11-15T16:00:02;3.17;;;2.87;;
12110;SDS011;6119;52.372;8.990;2022-11-15T16:02:50;4.97;;;3.00;;
12110;SDS011;6119;52.372;8.990;2022-11-15T16:05:37;3.30;;;2.70;;
12110;SDS011;6119;52.372;8.990;2022-11-15T16:08:24;5.43;;;2.73;;
12110;SDS011;6119;52.372;8.990;2022-11-15T16:11:22;4.40;;;3.20;;
12110;SDS011;6119;52.372;8.990;2022-11-15T16:14:08;4.00;;;3.10;;
12110;SDS011;6119;52.372;8.990;2022-11-15T16:16:55;4.37;;;3.40;;
12110;SDS011;6119;52.372;8.990;2022-11-15T16:19:43;6.10;;;3.60;;
12110;SDS011;6119;52.372;8.990;2022-11-15T16:22:29;5.27;;;3.20;;
12110;SDS011;6119;52.372;8.990;2022-11-15T16:25:16;4.17;;;3.30;;
12110;SDS011;6119;52.372;8.990;2022-11-15T16:28:03;4.73;;;3.80;;
12110;SDS011;6119;52.372;8.990;2022-11-15T16:30:49;6.43;;;3.13;;
12110;SDS011;6119;52.372;8.990;2022-11-15T16:33:46;6.57;;;4.80;;
12110;SDS011;6119;52.372;8.990;2022-11-15T16:36:35;10.87;;;5.80;;
12110;SDS011;6119;52.372;8.990;2022-11-15T16:39:21;6.40;;;5.07;;
12110;SDS011;6119;52.372;8.990;2022-11-15T16:42:08;6.60;;;4.50;;
12110;SDS011;6119;52.372;8.990;2022-11-15T16:44:54;13.67;;;4.40;;
12110;SDS011;6119;52.372;8.990;2022-11-15T16:47:40;5.93;;;3.80;;
12110;SDS011;6119;52.372;8.990;2022-11-15T16:50:28;8.00;;;4.10;;
12110;SDS011;6119;52.372;8.990;2022-11-15T16:53:17;6.50;;;4.13;;
12110;SDS011;6119;52.372;8.990;2022-11-15T16:56:10;5.43;;;3.93;;
12110;SDS011;6119;52.372;8.990;2022-11-15T16:59:04;5.47;;;4.43;;
12110;SDS011;6119;52.372;8.990;2022-11-15T17:01:51;7.43;;;4.40;;
12110;SDS011;6119;52.372;8.990;2022-11-15T17:04:37;5.70;;;4.40;;
12110;SDS011;6119;52.372;8.990;2022-11-15T17:07:24;7.37;;;4.73;;
12110;SDS011;6119;52.372;8.990;2022-11-15T17:10:12;6.17;;;4.97;;
12110;SDS011;6119;52.372;8.990;2022-11-15T17:12:59;6.80;;;5.47;;
12110;SDS011;6119;52.372;8.990;2022-11-15T17:15:45;6.20;;;4.90;;
12110;SDS011;6119;52.372;8.990;2022-11-15T17:18:32;4.50;;;4.10;;
12110;SDS011;6119;52.372;8.990;2022-11-15T17:21:20;6.00;;;3.80;;
12110;SDS011;6119;52.372;8.990;2022-11-15T17:24:07;4.23;;;3.53;;
12110;SDS011;6119;52.372;8.990;2022-11-15T17:26:55;4.53;;;3.53;;
12110;SDS011;6119;52.372;8.990;2022-11-15T17:29:42;6.23;;;4.00;;
12110;SDS011;6119;52.372;8.990;2022-11-15T17:32:29;5.23;;;3.47;;
12110;SDS011;6119;52.372;8.990;2022-11-15T17:35:15;5.77;;;3.60;;